• Join FlightAware (Why Join?)
  • Login
  • US Flag 
09:29AM EDT


 

Airport Tracker/Info


-or-


 

Live Flight TrackerFlight Track Log ✈ EJA951 ✈ 17-Sep-2013 ✈ KADS - KSAT

Flight Track Log - Related Links

Times and Time Zones

All times are in EDT time to prevent confusion due to time zone crossing. See the EJA951 flight status page for this flight to view local times or setup timezone preferences in your user account.

Time Position Orientation Groundspeed Altitude Reporting Facility
EDT Latitude Longitude Course Direction KTS MPH feet Rate Location/Type
08:41AM 32.9500 -96.8000 52° Northeast 209 241 2,000  Level Dallas / Fort Worth TRACON
08:42AM 32.9833 -96.7500 52° Northeast 214 246 2,000  Level Dallas / Fort Worth TRACON
08:43AM 32.9667 -96.6833 107° East 218 251 2,000 1,320 Level Dallas / Fort Worth TRACON
08:44AM 32.9500 -96.6167 107° East 243 280 4,700 3,120 Climbing Dallas / Fort Worth TRACON
08:45AM 32.8833 -96.6000 168° South 272 313 8,300 3,360 Climbing Dallas / Fort Worth TRACON
08:46AM 32.7911 -96.6103 185° South 303 349 12,000 3,060 Climbing Fort Worth Center
08:47AM 32.7228 -96.6775 220° Southwest 317 365 15,000 2,400 Climbing Fort Worth Center
08:48AM 32.6272 -96.7597 216° Southwest 370 426 16,800 1,500 Climbing Fort Worth Center
08:49AM 32.5522 -96.8267 217° Southwest 391 450 18,000 1,200 Climbing Fort Worth Center
08:50AM 32.4525 -96.9111 216° Southwest 398 458 19,300 1,140 Climbing Fort Worth Center
08:51AM 32.3631 -96.9928 218° Southwest 403 464 20,400 1,260 Climbing Fort Worth Center
08:52AM 32.2733 -97.0547 210° Southwest 415 478 21,900 1,500 Climbing Fort Worth Center
08:53AM 32.1586 -97.0650 184° South 403 464 23,400 1,200 Climbing Fort Worth Center
08:56AM 31.8844 -97.0728 181° South 439 505 25,800 780 Climbing Houston Center
08:57AM 31.7558 -97.0758 181° South 452 520 26,000 60 Climbing Houston Center
08:58AM 31.6189 -97.0808 182° South 479 551 26,000  Level Houston Center
08:59AM 31.4817 -97.1006 187° South 490 564 26,000  Level Houston Center
09:00AM 31.3494 -97.1531 199° South 496 571 26,000  Level Houston Center
09:01AM 31.2175 -97.2061 199° South 496 571 26,000  Level Houston Center
09:02AM 31.0836 -97.2583 198° South 501 577 26,000  Level Houston Center
09:03AM 30.9553 -97.3208 203° Southwest 539 620 26,000  Level Houston Center
09:04AM 30.8011 -97.3672 194° South 506 582 26,000  Level Houston Center
09:05AM 30.6694 -97.4175 198° South 496 571 26,000  Level Houston Center
09:06AM 30.5358 -97.4694 199° South 500 575 26,000 -840 Level Houston Center
09:07AM 30.4050 -97.5197 198° South 491 565 24,300 -2,100 Descending Houston Center
09:08AM 30.2872 -97.5928 208° Southwest 477 549 21,700 -2,640 Descending Houston Center
09:09AM 30.1803 -97.6664 211° Southwest 434 499 19,300 -2,400 Descending Houston Center
09:09AM 30.1786 -97.6683 225° Southwest 452 520 19,300 -2,280 Level Houston Center
09:10AM 30.0592 -97.7503 211° Southwest 424 488 16,700 -2,460 Descending Houston Center
09:10AM 30.0606 -97.7517 319° Northwest 418 481 16,700 -2,280 Level Houston Center
09:11AM 29.9564 -97.8200 210° Southwest 427 491 14,400 -2,460 Descending Houston Center
09:11AM 29.9500 -97.8261 220° Southwest 427 491 14,200 -2,400 Descending Houston Center
09:12AM 29.8728 -97.9192 226° Southwest 395 455 12,000 -2,220 Descending Houston Center
09:12AM 29.8728 -97.9181 90° East 391 450 12,000 -1,200 Level Houston Center
09:13AM 29.8308 -98.0178 244° Southwest 341 392 10,800 -1,140 Descending Houston Center
09:14AM 29.7956 -98.1031 245° Southwest 297 342 9,800 -1,020 Descending Houston Center
09:14AM 29.7919 -98.1089 234° Southwest 284 327 9,700 -1,020 Descending Houston Center
09:15AM 29.7578 -98.1942 245° Southwest 293 337 8,800 -900 Descending Houston Center
09:15AM 29.7581 -98.1947 300° West 290 334 8,800 -1,800 Level Houston Center
09:16AM 29.7539 -98.2900 267° West 302 348 7,000 -2,040 Descending Houston Center
09:16AM 29.7531 -98.2967 262° West 303 349 6,800 -1,560 Descending Houston Center
09:17AM 29.7519 -98.3544 269° West 298 343 6,000 -840 Descending Houston Center
09:17AM 29.7506 -98.3822 267° West 291 335 6,000 -120 Level Houston Center
09:18AM 29.7508 -98.4339 270° West 231 266 5,900 -720 Descending Houston Center
09:18AM 29.7494 -98.4614 267° West 241 277 5,300 -1,320 Descending Houston Center
09:19AM 29.7386 -98.5269 259° West 236 272 4,300 -1,200 Descending Houston Center
09:19AM 29.7344 -98.5369 244° Southwest 236 272 4,100 -1,200 Descending Houston Center
09:20AM 29.7006 -98.5725 222° Southwest 227 261 3,200 -1,200 Descending Houston Center
09:20AM 29.6856 -98.5889 224° Southwest 224 258 2,900 -420 Descending Houston Center
09:21AM 29.6628 -98.6178 228° Southwest 167 192 2,800 -120 Descending Houston Center
09:21AM 29.6486 -98.6128 163° South 178 205 2,800  Level Houston Center
09:22AM 29.6272 -98.5956 145° Southeast 133 153 2,800  Level Houston Center
09:22AM 29.6203 -98.5850 127° Southeast 141 162 2,800 -240 Level Houston Center
09:23AM 29.6036 -98.5672 137° Southeast 132 152 2,600 -540 Descending Houston Center
09:23AM 29.5922 -98.5489 126° Southeast 139 160 2,300 -720 Descending Houston Center
09:24AM 29.5794 -98.5339 134° Southeast 135 155 1,900 -720 Descending Houston Center
09:24AM 29.5692 -98.5186 128° Southeast 130 150 1,600 -540 Descending Houston Center
09:25AM 29.5558 -98.5031 135° Southeast 121 139 1,300 -720 Descending Houston Center
09:25AM 29.5461 -98.4878 126° Southeast 121 139 900 -1,020 Descending Houston Center
09:27AM 29.5333 -98.4667 146° Southeast  Level FlightAware Approximate
09:34AM 29.5340 -98.4691 146° Southeast  Level Estimated